フォークランド諸島 の空港の天気 - METARとTAF

マウント・プレザント空軍基地 ( EGYP / MPN ) - フォークランド諸島 フォークランド諸島
飛行場実況気象(Metar)
観測時間05/25 19:50 FKST (05/25 22:50 UTC)
風向・風速北北西 3m/s
視程10km以上
天気現象
少しの雲 雲底高度 730m
気温-1℃
湿度80%
気圧1020hPa
METAREGYP 252250Z 34006KT 9999 FEW024 M01/M04 Q1020
過去の天気等 Google飛行場航空写真 Wunderground天気予報

過去48時間のMETAR

飛行場予報(TAF)
発表時間: 5/25 19:14 FKST (5/25 22:14 UTC)
予報対象時間: 25日21時 FKST ~ 26日15時 FKST
風向・風速北東 4m/s
視程10km以上
少しの雲 雲底高度 760m
26日0時 FKST ~ 26日3時 FKST に徐々に
風向・風速北北東 8m/s 瞬間風速 13m/s
26日3時 FKST ~ 26日15時 FKST に 確率 30% で一時的に
風向・風速不定 4m/s
26日9時 FKST ~ 26日15時 FKST に一時的に
風向・風速北 15m/s 瞬間風速 21m/s
26日13時 FKST ~ 26日15時 FKST に 確率 30% で一時的に
天気現象弱い雨
全天の4割程度の雲 雲底高度 430m
TAF EGYP 252214Z 2600/2618 05008KT 9999 FEW025
BECMG 2603/2606 02015G25KT 520003
PROB30 TEMPO 2606/2618 VRB08KT 560003
TEMPO 2612/2618 36030G40KT 530003
PROB30 TEMPO 2616/2618 -RA SCT014